Terminal Aerodrome Forecast
Issued by NWS

Home | Current Version | Previous Version | Text Only | Print | Product List | Glossary On
Versions: 1 2 3 4 5 6 7 8 9 10 11 12 13 14 15 16
220
FTUS46 KMTR 242352
TAFSNS
TAF
KSNS 242352Z 2500/2524 27015G22KT P6SM FEW020 SCT060
     FM250200 26007KT P6SM SCT020 BKN050
     FM250500 26005KT P6SM BKN012 OVC020
     FM251000 25004KT P6SM OVC012
     FM251800 29014KT P6SM SCT030=

USA.gov is the U.S. government's official web portal to all federal, state and local government web resources and services.